sensor_id;sensor_type;location;lat;lon;timestamp;P1;durP1;ratioP1;P2;durP2;ratioP2
68365;SDS011;55283;51.466;5.478;2023-05-23T00:02:03;5.82;;;4.43;;
68365;SDS011;55283;51.466;5.478;2023-05-23T00:04:32;5.03;;;4.43;;
68365;SDS011;55283;51.466;5.478;2023-05-23T00:06:57;6.30;;;4.57;;
68365;SDS011;55283;51.466;5.478;2023-05-23T00:09:23;5.30;;;4.37;;
68365;SDS011;55283;51.466;5.478;2023-05-23T00:11:48;5.55;;;4.20;;
68365;SDS011;55283;51.466;5.478;2023-05-23T00:14:14;5.20;;;4.43;;
68365;SDS011;55283;51.466;5.478;2023-05-23T00:16:43;5.10;;;4.50;;
68365;SDS011;55283;51.466;5.478;2023-05-23T00:19:10;5.45;;;4.53;;
68365;SDS011;55283;51.466;5.478;2023-05-23T00:21:38;5.97;;;4.45;;
68365;SDS011;55283;51.466;5.478;2023-05-23T00:24:04;5.13;;;4.20;;
68365;SDS011;55283;51.466;5.478;2023-05-23T00:26:30;5.93;;;4.47;;
68365;SDS011;55283;51.466;5.478;2023-05-23T00:28:56;5.03;;;4.30;;
68365;SDS011;55283;51.466;5.478;2023-05-23T00:31:22;5.78;;;4.30;;
68365;SDS011;55283;51.466;5.478;2023-05-23T00:33:47;5.53;;;4.47;;
68365;SDS011;55283;51.466;5.478;2023-05-23T00:36:12;4.80;;;4.30;;
68365;SDS011;55283;51.466;5.478;2023-05-23T00:38:38;6.03;;;4.30;;
68365;SDS011;55283;51.466;5.478;2023-05-23T00:41:04;5.03;;;4.17;;
68365;SDS011;55283;51.466;5.478;2023-05-23T00:43:30;5.88;;;4.10;;
68365;SDS011;55283;51.466;5.478;2023-05-23T00:45:55;4.70;;;4.10;;
68365;SDS011;55283;51.466;5.478;2023-05-23T00:48:22;5.75;;;4.20;;
68365;SDS011;55283;51.466;5.478;2023-05-23T00:50:49;4.40;;;4.00;;
68365;SDS011;55283;51.466;5.478;2023-05-23T00:53:15;4.70;;;4.00;;
68365;SDS011;55283;51.466;5.478;2023-05-23T00:55:41;4.10;;;3.70;;
68365;SDS011;55283;51.466;5.478;2023-05-23T00:58:07;5.07;;;4.10;;
68365;SDS011;55283;51.466;5.478;2023-05-23T01:00:33;4.37;;;3.80;;
68365;SDS011;55283;51.466;5.478;2023-05-23T01:02:59;5.18;;;4.00;;
68365;SDS011;55283;51.466;5.478;2023-05-23T01:05:25;4.55;;;4.13;;
68365;SDS011;55283;51.466;5.478;2023-05-23T01:07:51;4.60;;;3.90;;
68365;SDS011;55283;51.466;5.478;2023-05-23T01:10:20;4.30;;;3.90;;
68365;SDS011;55283;51.466;5.478;2023-05-23T01:15:33;4.60;;;4.10;;
68365;SDS011;55283;51.466;5.478;2023-05-23T01:20:40;5.15;;;4.28;;
68365;SDS011;55283;51.466;5.478;2023-05-23T01:23:19;5.07;;;4.00;;
68365;SDS011;55283;51.466;5.478;2023-05-23T01:28:36;5.07;;;4.20;;
68365;SDS011;55283;51.466;5.478;2023-05-23T01:31:05;4.40;;;3.70;;
68365;SDS011;55283;51.466;5.478;2023-05-23T01:33:34;5.43;;;4.20;;
68365;SDS011;55283;51.466;5.478;2023-05-23T01:36:02;5.60;;;4.20;;
68365;SDS011;55283;51.466;5.478;2023-05-23T01:38:27;4.25;;;3.80;;
68365;SDS011;55283;51.466;5.478;2023-05-23T01:40:53;4.30;;;3.80;;
68365;SDS011;55283;51.466;5.478;2023-05-23T01:43:18;5.30;;;4.13;;
68365;SDS011;55283;51.466;5.478;2023-05-23T01:45:44;5.83;;;4.00;;
68365;SDS011;55283;51.466;5.478;2023-05-23T01:48:10;4.25;;;3.80;;
68365;SDS011;55283;51.466;5.478;2023-05-23T01:50:38;4.70;;;3.80;;
68365;SDS011;55283;51.466;5.478;2023-05-23T01:53:04;5.40;;;3.90;;
68365;SDS011;55283;51.466;5.478;2023-05-23T01:55:29;4.88;;;4.00;;
68365;SDS011;55283;51.466;5.478;2023-05-23T01:57:55;5.57;;;3.90;;
68365;SDS011;55283;51.466;5.478;2023-05-23T02:00:22;4.45;;;4.05;;
68365;SDS011;55283;51.466;5.478;2023-05-23T02:02:47;4.67;;;4.10;;
68365;SDS011;55283;51.466;5.478;2023-05-23T02:05:13;5.05;;;3.85;;
68365;SDS011;55283;51.466;5.478;2023-05-23T02:07:38;4.53;;;3.93;;
68365;SDS011;55283;51.466;5.478;2023-05-23T02:10:05;5.30;;;4.17;;
68365;SDS011;55283;51.466;5.478;2023-05-23T02:12:32;5.15;;;4.05;;
68365;SDS011;55283;51.466;5.478;2023-05-23T02:14:57;4.47;;;3.87;;
68365;SDS011;55283;51.466;5.478;2023-05-23T02:17:22;4.27;;;3.60;;
68365;SDS011;55283;51.466;5.478;2023-05-23T02:19:48;4.28;;;3.60;;
68365;SDS011;55283;51.466;5.478;2023-05-23T02:22:14;4.97;;;3.63;;
68365;SDS011;55283;51.466;5.478;2023-05-23T02:24:39;4.97;;;3.93;;
68365;SDS011;55283;51.466;5.478;2023-05-23T02:27:05;4.20;;;3.72;;
68365;SDS011;55283;51.466;5.478;2023-05-23T02:29:30;4.33;;;3.63;;
68365;SDS011;55283;51.466;5.478;2023-05-23T02:31:56;4.68;;;3.72;;
68365;SDS011;55283;51.466;5.478;2023-05-23T02:34:21;4.07;;;3.50;;
68365;SDS011;55283;51.466;5.478;2023-05-23T02:36:47;3.97;;;3.27;;
68365;SDS011;55283;51.466;5.478;2023-05-23T02:39:12;4.07;;;3.60;;
68365;SDS011;55283;51.466;5.478;2023-05-23T02:41:37;4.77;;;3.67;;
68365;SDS011;55283;51.466;5.478;2023-05-23T02:44:03;5.37;;;3.97;;
68365;SDS011;55283;51.466;5.478;2023-05-23T02:46:28;5.53;;;4.03;;
68365;SDS011;55283;51.466;5.478;2023-05-23T02:48:53;4.63;;;3.80;;
68365;SDS011;55283;51.466;5.478;2023-05-23T02:51:19;3.90;;;3.50;;
68365;SDS011;55283;51.466;5.478;2023-05-23T02:53:45;4.47;;;3.78;;
68365;SDS011;55283;51.466;5.478;2023-05-23T02:56:10;4.00;;;3.60;;
68365;SDS011;55283;51.466;5.478;2023-05-23T02:58:37;4.30;;;3.80;;
68365;SDS011;55283;51.466;5.478;2023-05-23T03:01:03;5.75;;;3.53;;
68365;SDS011;55283;51.466;5.478;2023-05-23T03:03:29;5.10;;;4.00;;
68365;SDS011;55283;51.466;5.478;2023-05-23T03:05:58;4.30;;;3.90;;
68365;SDS011;55283;51.466;5.478;2023-05-23T03:08:23;3.93;;;3.53;;
68365;SDS011;55283;51.466;5.478;2023-05-23T03:10:49;4.38;;;3.97;;
68365;SDS011;55283;51.466;5.478;2023-05-23T03:13:15;4.82;;;3.95;;
68365;SDS011;55283;51.466;5.478;2023-05-23T03:15:41;4.90;;;3.90;;
68365;SDS011;55283;51.466;5.478;2023-05-23T03:18:06;4.40;;;3.70;;
68365;SDS011;55283;51.466;5.478;2023-05-23T03:20:32;4.13;;;3.53;;
68365;SDS011;55283;51.466;5.478;2023-05-23T03:22:57;4.23;;;3.50;;
68365;SDS011;55283;51.466;5.478;2023-05-23T03:25:23;3.80;;;3.37;;
68365;SDS011;55283;51.466;5.478;2023-05-23T03:27:48;4.00;;;3.60;;
68365;SDS011;55283;51.466;5.478;2023-05-23T03:30:13;3.70;;;3.40;;
68365;SDS011;55283;51.466;5.478;2023-05-23T03:32:39;4.03;;;3.63;;
68365;SDS011;55283;51.466;5.478;2023-05-23T03:35:05;3.80;;;3.40;;
68365;SDS011;55283;51.466;5.478;2023-05-23T03:37:30;3.85;;;3.45;;
68365;SDS011;55283;51.466;5.478;2023-05-23T03:39:56;4.30;;;3.50;;
68365;SDS011;55283;51.466;5.478;2023-05-23T03:42:21;4.13;;;3.37;;
68365;SDS011;55283;51.466;5.478;2023-05-23T03:44:47;4.10;;;3.53;;
68365;SDS011;55283;51.466;5.478;2023-05-23T03:47:12;3.70;;;3.30;;
68365;SDS011;55283;51.466;5.478;2023-05-23T03:49:37;3.90;;;3.47;;
68365;SDS011;55283;51.466;5.478;2023-05-23T03:52:03;4.13;;;3.20;;
68365;SDS011;55283;51.466;5.478;2023-05-23T03:54:28;3.90;;;3.50;;
68365;SDS011;55283;51.466;5.478;2023-05-23T03:56:53;3.95;;;3.55;;
68365;SDS011;55283;51.466;5.478;2023-05-23T03:59:19;3.77;;;3.30;;
68365;SDS011;55283;51.466;5.478;2023-05-23T04:01:44;5.17;;;3.73;;
68365;SDS011;55283;51.466;5.478;2023-05-23T04:04:10;3.97;;;3.43;;
68365;SDS011;55283;51.466;5.478;2023-05-23T04:06:35;3.80;;;3.37;;
68365;SDS011;55283;51.466;5.478;2023-05-23T04:09:01;4.10;;;3.70;;
68365;SDS011;55283;51.466;5.478;2023-05-23T04:11:27;3.55;;;3.00;;
68365;SDS011;55283;51.466;5.478;2023-05-23T04:13:52;4.10;;;3.27;;
68365;SDS011;55283;51.466;5.478;2023-05-23T04:16:18;3.73;;;3.20;;
68365;SDS011;55283;51.466;5.478;2023-05-23T04:18:44;4.55;;;3.75;;
68365;SDS011;55283;51.466;5.478;2023-05-23T04:21:11;4.03;;;3.50;;
68365;SDS011;55283;51.466;5.478;2023-05-23T04:23:36;4.28;;;3.40;;
68365;SDS011;55283;51.466;5.478;2023-05-23T04:26:02;3.40;;;3.10;;
68365;SDS011;55283;51.466;5.478;2023-05-23T04:28:32;4.47;;;3.65;;
68365;SDS011;55283;51.466;5.478;2023-05-23T04:30:58;3.85;;;3.40;;
68365;SDS011;55283;51.466;5.478;2023-05-23T04:33:23;3.60;;;3.30;;
68365;SDS011;55283;51.466;5.478;2023-05-23T04:35:50;3.72;;;3.33;;
68365;SDS011;55283;51.466;5.478;2023-05-23T04:38:15;3.60;;;3.20;;
68365;SDS011;55283;51.466;5.478;2023-05-23T04:40:41;3.57;;;3.27;;
68365;SDS011;55283;51.466;5.478;2023-05-23T04:43:06;4.15;;;3.25;;
68365;SDS011;55283;51.466;5.478;2023-05-23T04:45:34;4.17;;;3.23;;
68365;SDS011;55283;51.466;5.478;2023-05-23T04:48:00;3.72;;;3.30;;
68365;SDS011;55283;51.466;5.478;2023-05-23T04:50:26;4.07;;;3.00;;
68365;SDS011;55283;51.466;5.478;2023-05-23T04:52:55;3.90;;;3.30;;
68365;SDS011;55283;51.466;5.478;2023-05-23T04:55:21;4.03;;;3.30;;
68365;SDS011;55283;51.466;5.478;2023-05-23T04:57:46;3.80;;;2.97;;
68365;SDS011;55283;51.466;5.478;2023-05-23T05:00:12;3.33;;;3.03;;
68365;SDS011;55283;51.466;5.478;2023-05-23T05:02:38;4.10;;;3.25;;
68365;SDS011;55283;51.466;5.478;2023-05-23T05:05:05;3.67;;;3.20;;
68365;SDS011;55283;51.466;5.478;2023-05-23T05:07:31;3.80;;;3.40;;
68365;SDS011;55283;51.466;5.478;2023-05-23T05:09:56;3.53;;;3.20;;
68365;SDS011;55283;51.466;5.478;2023-05-23T05:12:22;3.23;;;2.93;;
68365;SDS011;55283;51.466;5.478;2023-05-23T05:14:47;3.43;;;3.13;;
68365;SDS011;55283;51.466;5.478;2023-05-23T05:17:12;3.50;;;3.20;;
68365;SDS011;55283;51.466;5.478;2023-05-23T05:19:38;3.43;;;3.13;;
68365;SDS011;55283;51.466;5.478;2023-05-23T05:22:03;3.45;;;2.88;;
68365;SDS011;55283;51.466;5.478;2023-05-23T05:24:29;5.07;;;3.07;;
68365;SDS011;55283;51.466;5.478;2023-05-23T05:26:54;3.43;;;3.13;;
68365;SDS011;55283;51.466;5.478;2023-05-23T05:29:20;4.50;;;3.13;;
68365;SDS011;55283;51.466;5.478;2023-05-23T05:31:46;5.65;;;3.10;;
68365;SDS011;55283;51.466;5.478;2023-05-23T05:34:11;4.13;;;3.00;;
68365;SDS011;55283;51.466;5.478;2023-05-23T05:36:37;4.00;;;3.10;;
68365;SDS011;55283;51.466;5.478;2023-05-23T05:39:09;3.30;;;2.75;;
68365;SDS011;55283;51.466;5.478;2023-05-23T05:41:35;3.20;;;2.90;;
68365;SDS011;55283;51.466;5.478;2023-05-23T05:44:00;4.00;;;3.00;;
68365;SDS011;55283;51.466;5.478;2023-05-23T05:46:26;4.97;;;2.77;;
68365;SDS011;55283;51.466;5.478;2023-05-23T05:48:51;3.93;;;2.97;;
68365;SDS011;55283;51.466;5.478;2023-05-23T05:51:16;4.60;;;2.97;;
68365;SDS011;55283;51.466;5.478;2023-05-23T05:53:42;6.30;;;3.10;;
68365;SDS011;55283;51.466;5.478;2023-05-23T05:56:07;3.43;;;3.00;;
68365;SDS011;55283;51.466;5.478;2023-05-23T05:58:33;5.10;;;3.30;;
68365;SDS011;55283;51.466;5.478;2023-05-23T06:00:58;5.13;;;2.93;;
68365;SDS011;55283;51.466;5.478;2023-05-23T06:03:24;5.28;;;2.90;;
68365;SDS011;55283;51.466;5.478;2023-05-23T06:05:51;7.40;;;3.07;;
68365;SDS011;55283;51.466;5.478;2023-05-23T06:08:16;5.30;;;3.00;;
68365;SDS011;55283;51.466;5.478;2023-05-23T06:10:42;6.03;;;3.40;;
68365;SDS011;55283;51.466;5.478;2023-05-23T06:13:07;4.87;;;3.27;;
68365;SDS011;55283;51.466;5.478;2023-05-23T06:15:33;7.40;;;3.23;;
68365;SDS011;55283;51.466;5.478;2023-05-23T06:17:58;5.85;;;2.90;;
68365;SDS011;55283;51.466;5.478;2023-05-23T06:20:23;5.10;;;2.87;;
68365;SDS011;55283;51.466;5.478;2023-05-23T06:22:49;6.07;;;3.10;;
68365;SDS011;55283;51.466;5.478;2023-05-23T06:25:14;8.07;;;3.40;;
68365;SDS011;55283;51.466;5.478;2023-05-23T06:27:40;9.68;;;4.13;;
68365;SDS011;55283;51.466;5.478;2023-05-23T06:30:05;14.63;;;5.30;;
68365;SDS011;55283;51.466;5.478;2023-05-23T06:32:31;12.68;;;5.43;;
68365;SDS011;55283;51.466;5.478;2023-05-23T06:34:56;11.23;;;5.17;;
68365;SDS011;55283;51.466;5.478;2023-05-23T06:37:22;12.10;;;4.93;;
68365;SDS011;55283;51.466;5.478;2023-05-23T06:39:47;9.83;;;4.90;;
68365;SDS011;55283;51.466;5.478;2023-05-23T06:42:13;13.63;;;4.72;;
68365;SDS011;55283;51.466;5.478;2023-05-23T06:44:39;10.80;;;4.73;;
68365;SDS011;55283;51.466;5.478;2023-05-23T06:47:05;14.20;;;4.67;;
68365;SDS011;55283;51.466;5.478;2023-05-23T06:49:31;11.82;;;4.30;;
68365;SDS011;55283;51.466;5.478;2023-05-23T06:51:56;12.73;;;4.10;;
68365;SDS011;55283;51.466;5.478;2023-05-23T06:54:22;9.97;;;4.00;;
68365;SDS011;55283;51.466;5.478;2023-05-23T06:56:47;10.80;;;4.60;;
68365;SDS011;55283;51.466;5.478;2023-05-23T06:59:13;8.53;;;3.87;;
68365;SDS011;55283;51.466;5.478;2023-05-23T07:01:38;9.03;;;3.80;;
68365;SDS011;55283;51.466;5.478;2023-05-23T07:04:03;8.13;;;3.70;;
68365;SDS011;55283;51.466;5.478;2023-05-23T07:06:29;7.35;;;4.03;;
68365;SDS011;55283;51.466;5.478;2023-05-23T07:08:55;9.93;;;3.70;;
68365;SDS011;55283;51.466;5.478;2023-05-23T07:11:20;8.98;;;3.63;;
68365;SDS011;55283;51.466;5.478;2023-05-23T07:13:46;9.63;;;3.73;;
68365;SDS011;55283;51.466;5.478;2023-05-23T07:16:12;9.53;;;3.77;;
68365;SDS011;55283;51.466;5.478;2023-05-23T07:18:37;9.43;;;3.92;;
68365;SDS011;55283;51.466;5.478;2023-05-23T07:21:03;9.13;;;4.30;;
68365;SDS011;55283;51.466;5.478;2023-05-23T07:23:31;8.00;;;3.60;;
68365;SDS011;55283;51.466;5.478;2023-05-23T07:25:58;8.98;;;3.83;;
68365;SDS011;55283;51.466;5.478;2023-05-23T07:28:24;11.27;;;4.20;;
68365;SDS011;55283;51.466;5.478;2023-05-23T07:30:49;10.83;;;4.20;;
68365;SDS011;55283;51.466;5.478;2023-05-23T07:33:15;11.00;;;3.90;;
68365;SDS011;55283;51.466;5.478;2023-05-23T07:35:40;9.47;;;3.53;;
68365;SDS011;55283;51.466;5.478;2023-05-23T07:38:06;10.07;;;3.90;;
68365;SDS011;55283;51.466;5.478;2023-05-23T07:40:31;11.13;;;3.70;;
68365;SDS011;55283;51.466;5.478;2023-05-23T07:42:57;9.40;;;3.50;;
68365;SDS011;55283;51.466;5.478;2023-05-23T07:45:24;8.55;;;3.78;;
68365;SDS011;55283;51.466;5.478;2023-05-23T07:47:49;12.80;;;4.07;;
68365;SDS011;55283;51.466;5.478;2023-05-23T07:50:15;11.67;;;3.80;;
68365;SDS011;55283;51.466;5.478;2023-05-23T07:52:40;7.50;;;3.70;;
68365;SDS011;55283;51.466;5.478;2023-05-23T07:55:07;12.30;;;3.80;;
68365;SDS011;55283;51.466;5.478;2023-05-23T07:57:33;11.27;;;4.05;;
68365;SDS011;55283;51.466;5.478;2023-05-23T07:59:58;14.20;;;4.60;;
68365;SDS011;55283;51.466;5.478;2023-05-23T08:02:23;9.87;;;4.00;;
68365;SDS011;55283;51.466;5.478;2023-05-23T08:04:49;9.15;;;3.90;;
68365;SDS011;55283;51.466;5.478;2023-05-23T08:07:15;9.27;;;4.00;;
68365;SDS011;55283;51.466;5.478;2023-05-23T08:09:40;8.13;;;3.73;;
68365;SDS011;55283;51.466;5.478;2023-05-23T08:12:06;9.80;;;4.15;;
68365;SDS011;55283;51.466;5.478;2023-05-23T08:14:33;8.50;;;4.10;;
68365;SDS011;55283;51.466;5.478;2023-05-23T08:16:59;11.67;;;4.27;;
68365;SDS011;55283;51.466;5.478;2023-05-23T08:19:25;9.77;;;3.80;;
68365;SDS011;55283;51.466;5.478;2023-05-23T08:21:50;11.87;;;4.27;;
68365;SDS011;55283;51.466;5.478;2023-05-23T08:24:17;9.90;;;4.03;;
68365;SDS011;55283;51.466;5.478;2023-05-23T08:26:43;9.27;;;4.10;;
68365;SDS011;55283;51.466;5.478;2023-05-23T08:29:09;8.50;;;4.00;;
68365;SDS011;55283;51.466;5.478;2023-05-23T08:31:34;8.10;;;3.87;;
68365;SDS011;55283;51.466;5.478;2023-05-23T08:34:00;9.45;;;3.97;;
68365;SDS011;55283;51.466;5.478;2023-05-23T08:36:26;8.90;;;4.17;;
68365;SDS011;55283;51.466;5.478;2023-05-23T08:38:51;10.13;;;4.07;;
68365;SDS011;55283;51.466;5.478;2023-05-23T08:41:21;10.27;;;4.00;;
68365;SDS011;55283;51.466;5.478;2023-05-23T08:43:47;15.18;;;4.20;;
68365;SDS011;55283;51.466;5.478;2023-05-23T08:46:13;7.45;;;3.53;;
68365;SDS011;55283;51.466;5.478;2023-05-23T08:48:41;11.17;;;4.20;;
68365;SDS011;55283;51.466;5.478;2023-05-23T08:51:10;8.20;;;3.85;;
68365;SDS011;55283;51.466;5.478;2023-05-23T08:53:40;8.57;;;3.72;;
68365;SDS011;55283;51.466;5.478;2023-05-23T08:56:11;11.05;;;3.60;;
68365;SDS011;55283;51.466;5.478;2023-05-23T08:58:36;7.77;;;3.50;;
68365;SDS011;55283;51.466;5.478;2023-05-23T09:01:04;7.15;;;3.33;;
68365;SDS011;55283;51.466;5.478;2023-05-23T09:03:30;9.13;;;3.50;;
68365;SDS011;55283;51.466;5.478;2023-05-23T09:05:55;7.82;;;3.42;;
68365;SDS011;55283;51.466;5.478;2023-05-23T09:08:21;10.60;;;3.60;;
68365;SDS011;55283;51.466;5.478;2023-05-23T09:10:48;12.52;;;3.60;;
68365;SDS011;55283;51.466;5.478;2023-05-23T09:13:14;7.82;;;3.10;;
68365;SDS011;55283;51.466;5.478;2023-05-23T09:18:25;9.50;;;3.53;;
68365;SDS011;55283;51.466;5.478;2023-05-23T09:20:51;6.85;;;3.05;;
68365;SDS011;55283;51.466;5.478;2023-05-23T09:23:16;8.27;;;3.43;;
68365;SDS011;55283;51.466;5.478;2023-05-23T09:25:46;6.75;;;2.88;;
68365;SDS011;55283;51.466;5.478;2023-05-23T09:28:12;7.40;;;3.20;;
68365;SDS011;55283;51.466;5.478;2023-05-23T09:30:37;7.07;;;2.80;;
68365;SDS011;55283;51.466;5.478;2023-05-23T09:33:03;6.87;;;3.27;;
68365;SDS011;55283;51.466;5.478;2023-05-23T09:35:29;8.48;;;3.35;;
68365;SDS011;55283;51.466;5.478;2023-05-23T09:37:55;9.10;;;3.47;;
68365;SDS011;55283;51.466;5.478;2023-05-23T09:40:28;8.63;;;3.20;;
68365;SDS011;55283;51.466;5.478;2023-05-23T09:43:04;9.35;;;3.22;;
68365;SDS011;55283;51.466;5.478;2023-05-23T09:45:31;5.93;;;2.60;;
68365;SDS011;55283;51.466;5.478;2023-05-23T09:47:57;10.57;;;2.90;;
68365;SDS011;55283;51.466;5.478;2023-05-23T09:50:23;14.93;;;2.83;;
68365;SDS011;55283;51.466;5.478;2023-05-23T09:52:54;6.50;;;2.60;;
68365;SDS011;55283;51.466;5.478;2023-05-23T09:55:21;9.43;;;3.13;;
68365;SDS011;55283;51.466;5.478;2023-05-23T09:57:47;7.78;;;2.70;;
68365;SDS011;55283;51.466;5.478;2023-05-23T10:00:17;9.63;;;2.67;;
68365;SDS011;55283;51.466;5.478;2023-05-23T10:02:55;10.27;;;2.70;;
68365;SDS011;55283;51.466;5.478;2023-05-23T10:08:24;11.68;;;3.03;;
68365;SDS011;55283;51.466;5.478;2023-05-23T10:13:20;8.67;;;3.20;;
68365;SDS011;55283;51.466;5.478;2023-05-23T10:15:50;9.23;;;2.75;;
68365;SDS011;55283;51.466;5.478;2023-05-23T10:18:24;10.15;;;2.80;;
68365;SDS011;55283;51.466;5.478;2023-05-23T10:20:53;7.38;;;2.75;;
68365;SDS011;55283;51.466;5.478;2023-05-23T10:23:26;7.13;;;2.90;;
68365;SDS011;55283;51.466;5.478;2023-05-23T10:25:53;8.80;;;2.75;;
68365;SDS011;55283;51.466;5.478;2023-05-23T10:28:19;7.38;;;2.80;;
68365;SDS011;55283;51.466;5.478;2023-05-23T10:30:45;5.67;;;2.73;;
68365;SDS011;55283;51.466;5.478;2023-05-23T10:33:12;8.43;;;2.83;;
68365;SDS011;55283;51.466;5.478;2023-05-23T10:35:49;6.05;;;2.45;;
68365;SDS011;55283;51.466;5.478;2023-05-23T10:41:17;8.60;;;2.60;;
68365;SDS011;55283;51.466;5.478;2023-05-23T10:44:07;8.23;;;2.67;;
68365;SDS011;55283;51.466;5.478;2023-05-23T10:46:53;8.02;;;2.50;;
68365;SDS011;55283;51.466;5.478;2023-05-23T10:52:07;7.55;;;2.88;;
68365;SDS011;55283;51.466;5.478;2023-05-23T10:54:35;7.13;;;2.60;;
68365;SDS011;55283;51.466;5.478;2023-05-23T10:57:05;7.30;;;2.60;;
68365;SDS011;55283;51.466;5.478;2023-05-23T10:59:30;8.38;;;2.50;;
68365;SDS011;55283;51.466;5.478;2023-05-23T11:01:56;9.80;;;3.03;;
68365;SDS011;55283;51.466;5.478;2023-05-23T11:04:24;10.73;;;2.80;;
68365;SDS011;55283;51.466;5.478;2023-05-23T11:06:53;8.13;;;2.90;;
68365;SDS011;55283;51.466;5.478;2023-05-23T11:09:20;6.63;;;2.40;;
68365;SDS011;55283;51.466;5.478;2023-05-23T11:14:33;7.30;;;2.50;;
68365;SDS011;55283;51.466;5.478;2023-05-23T11:19:36;6.22;;;2.67;;
68365;SDS011;55283;51.466;5.478;2023-05-23T11:22:19;7.22;;;2.47;;
68365;SDS011;55283;51.466;5.478;2023-05-23T11:27:15;6.30;;;2.50;;
68365;SDS011;55283;51.466;5.478;2023-05-23T11:29:44;8.88;;;2.38;;
68365;SDS011;55283;51.466;5.478;2023-05-23T11:32:20;6.20;;;2.60;;
68365;SDS011;55283;51.466;5.478;2023-05-23T11:34:45;7.38;;;2.80;;
68365;SDS011;55283;51.466;5.478;2023-05-23T11:37:11;5.77;;;2.30;;
68365;SDS011;55283;51.466;5.478;2023-05-23T11:39:37;6.00;;;2.35;;
68365;SDS011;55283;51.466;5.478;2023-05-23T11:42:02;4.77;;;2.43;;
68365;SDS011;55283;51.466;5.478;2023-05-23T11:44:28;7.95;;;2.67;;
68365;SDS011;55283;51.466;5.478;2023-05-23T11:47:06;7.37;;;2.50;;
68365;SDS011;55283;51.466;5.478;2023-05-23T11:49:36;8.82;;;3.05;;
68365;SDS011;55283;51.466;5.478;2023-05-23T11:52:03;7.10;;;2.50;;
68365;SDS011;55283;51.466;5.478;2023-05-23T11:54:29;6.43;;;2.43;;
68365;SDS011;55283;51.466;5.478;2023-05-23T11:56:54;6.47;;;2.50;;
68365;SDS011;55283;51.466;5.478;2023-05-23T11:59:21;7.97;;;2.47;;
68365;SDS011;55283;51.466;5.478;2023-05-23T12:01:49;6.50;;;2.30;;
68365;SDS011;55283;51.466;5.478;2023-05-23T12:04:15;7.45;;;2.35;;
68365;SDS011;55283;51.466;5.478;2023-05-23T12:06:41;7.87;;;2.50;;
68365;SDS011;55283;51.466;5.478;2023-05-23T12:09:07;6.63;;;2.40;;
68365;SDS011;55283;51.466;5.478;2023-05-23T12:11:35;6.07;;;2.40;;
68365;SDS011;55283;51.466;5.478;2023-05-23T12:14:01;6.28;;;2.47;;
68365;SDS011;55283;51.466;5.478;2023-05-23T12:16:30;5.70;;;2.63;;
68365;SDS011;55283;51.466;5.478;2023-05-23T12:18:59;7.15;;;2.45;;
68365;SDS011;55283;51.466;5.478;2023-05-23T12:21:26;5.40;;;2.40;;
68365;SDS011;55283;51.466;5.478;2023-05-23T12:24:15;5.95;;;2.13;;
68365;SDS011;55283;51.466;5.478;2023-05-23T12:26:57;5.23;;;2.70;;
68365;SDS011;55283;51.466;5.478;2023-05-23T12:29:30;9.75;;;2.60;;
68365;SDS011;55283;51.466;5.478;2023-05-23T12:32:01;6.10;;;2.70;;
68365;SDS011;55283;51.466;5.478;2023-05-23T12:34:28;7.07;;;2.60;;
68365;SDS011;55283;51.466;5.478;2023-05-23T12:36:54;5.80;;;2.42;;
68365;SDS011;55283;51.466;5.478;2023-05-23T12:39:27;6.67;;;2.40;;
68365;SDS011;55283;51.466;5.478;2023-05-23T12:41:53;8.13;;;2.72;;
68365;SDS011;55283;51.466;5.478;2023-05-23T12:44:22;6.90;;;2.60;;
68365;SDS011;55283;51.466;5.478;2023-05-23T12:46:48;5.43;;;2.30;;
68365;SDS011;55283;51.466;5.478;2023-05-23T12:49:14;5.23;;;2.70;;
68365;SDS011;55283;51.466;5.478;2023-05-23T12:51:40;6.05;;;2.42;;
68365;SDS011;55283;51.466;5.478;2023-05-23T12:54:07;7.33;;;2.47;;
68365;SDS011;55283;51.466;5.478;2023-05-23T12:56:32;6.13;;;2.47;;
68365;SDS011;55283;51.466;5.478;2023-05-23T12:58:58;9.00;;;2.60;;
68365;SDS011;55283;51.466;5.478;2023-05-23T13:01:25;4.72;;;2.50;;
68365;SDS011;55283;51.466;5.478;2023-05-23T13:03:51;9.17;;;2.57;;
68365;SDS011;55283;51.466;5.478;2023-05-23T13:06:17;5.50;;;2.20;;
68365;SDS011;55283;51.466;5.478;2023-05-23T13:08:42;8.45;;;2.72;;
68365;SDS011;55283;51.466;5.478;2023-05-23T13:11:08;6.20;;;2.27;;
68365;SDS011;55283;51.466;5.478;2023-05-23T13:13:33;8.87;;;2.50;;
68365;SDS011;55283;51.466;5.478;2023-05-23T13:15:59;4.80;;;2.22;;
68365;SDS011;55283;51.466;5.478;2023-05-23T13:18:24;8.00;;;2.70;;
68365;SDS011;55283;51.466;5.478;2023-05-23T13:20:50;6.67;;;2.83;;
68365;SDS011;55283;51.466;5.478;2023-05-23T13:23:15;6.57;;;2.33;;
68365;SDS011;55283;51.466;5.478;2023-05-23T13:25:41;4.93;;;2.03;;
68365;SDS011;55283;51.466;5.478;2023-05-23T13:28:06;6.50;;;2.20;;
68365;SDS011;55283;51.466;5.478;2023-05-23T13:30:33;7.05;;;2.35;;
68365;SDS011;55283;51.466;5.478;2023-05-23T13:32:58;6.03;;;2.23;;
68365;SDS011;55283;51.466;5.478;2023-05-23T13:35:24;7.20;;;2.45;;
68365;SDS011;55283;51.466;5.478;2023-05-23T13:37:49;6.50;;;2.73;;
68365;SDS011;55283;51.466;5.478;2023-05-23T13:40:19;4.83;;;2.50;;
68365;SDS011;55283;51.466;5.478;2023-05-23T13:42:46;7.00;;;2.33;;
68365;SDS011;55283;51.466;5.478;2023-05-23T13:45:13;6.63;;;2.42;;
68365;SDS011;55283;51.466;5.478;2023-05-23T13:47:39;5.73;;;2.43;;
68365;SDS011;55283;51.466;5.478;2023-05-23T13:50:04;6.13;;;2.27;;
68365;SDS011;55283;51.466;5.478;2023-05-23T13:52:30;5.72;;;2.25;;
68365;SDS011;55283;51.466;5.478;2023-05-23T13:54:55;5.63;;;2.50;;
68365;SDS011;55283;51.466;5.478;2023-05-23T13:57:21;5.00;;;2.35;;
68365;SDS011;55283;51.466;5.478;2023-05-23T13:59:46;8.33;;;2.60;;
68365;SDS011;55283;51.466;5.478;2023-05-23T14:02:12;6.33;;;2.37;;
68365;SDS011;55283;51.466;5.478;2023-05-23T14:04:37;5.37;;;2.40;;
68365;SDS011;55283;51.466;5.478;2023-05-23T14:07:03;5.87;;;2.37;;
68365;SDS011;55283;51.466;5.478;2023-05-23T14:09:28;7.33;;;2.50;;
68365;SDS011;55283;51.466;5.478;2023-05-23T14:11:54;7.10;;;2.33;;
68365;SDS011;55283;51.466;5.478;2023-05-23T14:14:19;6.63;;;2.40;;
68365;SDS011;55283;51.466;5.478;2023-05-23T14:16:45;9.30;;;2.40;;
68365;SDS011;55283;51.466;5.478;2023-05-23T14:19:10;8.43;;;2.40;;
68365;SDS011;55283;51.466;5.478;2023-05-23T14:21:36;4.67;;;2.20;;
68365;SDS011;55283;51.466;5.478;2023-05-23T14:24:02;4.82;;;2.25;;
68365;SDS011;55283;51.466;5.478;2023-05-23T14:26:28;8.53;;;2.30;;
68365;SDS011;55283;51.466;5.478;2023-05-23T14:28:53;6.50;;;2.50;;
68365;SDS011;55283;51.466;5.478;2023-05-23T14:31:19;7.07;;;2.20;;
68365;SDS011;55283;51.466;5.478;2023-05-23T14:33:45;7.20;;;2.20;;
68365;SDS011;55283;51.466;5.478;2023-05-23T14:36:11;6.30;;;2.50;;
68365;SDS011;55283;51.466;5.478;2023-05-23T14:38:36;6.10;;;2.30;;
68365;SDS011;55283;51.466;5.478;2023-05-23T14:41:03;7.35;;;2.50;;
68365;SDS011;55283;51.466;5.478;2023-05-23T14:43:29;6.55;;;2.10;;
68365;SDS011;55283;51.466;5.478;2023-05-23T14:45:55;6.67;;;2.43;;
68365;SDS011;55283;51.466;5.478;2023-05-23T14:48:20;8.47;;;2.47;;
68365;SDS011;55283;51.466;5.478;2023-05-23T14:50:46;7.47;;;2.40;;
68365;SDS011;55283;51.466;5.478;2023-05-23T14:53:11;7.23;;;2.17;;
68365;SDS011;55283;51.466;5.478;2023-05-23T14:55:37;7.57;;;2.33;;
68365;SDS011;55283;51.466;5.478;2023-05-23T14:58:02;6.83;;;2.40;;
68365;SDS011;55283;51.466;5.478;2023-05-23T15:00:29;8.27;;;2.70;;
68365;SDS011;55283;51.466;5.478;2023-05-23T15:02:54;6.70;;;2.53;;
68365;SDS011;55283;51.466;5.478;2023-05-23T15:05:20;6.30;;;2.20;;
68365;SDS011;55283;51.466;5.478;2023-05-23T15:07:46;6.07;;;2.37;;
68365;SDS011;55283;51.466;5.478;2023-05-23T15:10:11;6.57;;;2.50;;
68365;SDS011;55283;51.466;5.478;2023-05-23T15:12:36;6.93;;;2.47;;